sensor_id;sensor_type;location;lat;lon;timestamp;P1;durP1;ratioP1;P2;durP2;ratioP2
60076;SDS011;45950;45.208;20.374;2023-06-26T00:00:06;11.90;;;7.72;;
60076;SDS011;45950;45.208;20.374;2023-06-26T00:02:34;11.50;;;7.30;;
60076;SDS011;45950;45.208;20.374;2023-06-26T00:05:00;10.07;;;6.88;;
60076;SDS011;45950;45.208;20.374;2023-06-26T00:07:30;12.38;;;10.00;;
60076;SDS011;45950;45.208;20.374;2023-06-26T00:09:59;12.98;;;9.63;;
60076;SDS011;45950;45.208;20.374;2023-06-26T00:12:25;10.60;;;9.50;;
60076;SDS011;45950;45.208;20.374;2023-06-26T00:14:52;11.95;;;9.25;;
60076;SDS011;45950;45.208;20.374;2023-06-26T00:17:19;12.05;;;7.82;;
60076;SDS011;45950;45.208;20.374;2023-06-26T00:19:45;8.88;;;6.60;;
60076;SDS011;45950;45.208;20.374;2023-06-26T00:22:12;9.68;;;6.97;;
60076;SDS011;45950;45.208;20.374;2023-06-26T00:24:40;7.55;;;5.82;;
60076;SDS011;45950;45.208;20.374;2023-06-26T00:27:07;8.00;;;6.57;;
60076;SDS011;45950;45.208;20.374;2023-06-26T00:29:33;12.07;;;8.18;;
60076;SDS011;45950;45.208;20.374;2023-06-26T00:32:00;7.95;;;6.55;;
60076;SDS011;45950;45.208;20.374;2023-06-26T00:34:27;10.80;;;8.30;;
60076;SDS011;45950;45.208;20.374;2023-06-26T00:36:53;7.20;;;6.35;;
60076;SDS011;45950;45.208;20.374;2023-06-26T00:39:20;7.65;;;6.45;;
60076;SDS011;45950;45.208;20.374;2023-06-26T00:41:48;9.98;;;8.65;;
60076;SDS011;45950;45.208;20.374;2023-06-26T00:44:20;8.13;;;6.75;;
60076;SDS011;45950;45.208;20.374;2023-06-26T00:46:46;9.75;;;7.50;;
60076;SDS011;45950;45.208;20.374;2023-06-26T00:49:13;14.02;;;8.77;;
60076;SDS011;45950;45.208;20.374;2023-06-26T00:51:40;11.70;;;9.02;;
60076;SDS011;45950;45.208;20.374;2023-06-26T00:54:06;14.63;;;10.50;;
60076;SDS011;45950;45.208;20.374;2023-06-26T00:56:33;17.65;;;11.98;;
60076;SDS011;45950;45.208;20.374;2023-06-26T00:59:01;15.90;;;12.52;;
60076;SDS011;45950;45.208;20.374;2023-06-26T01:01:28;17.60;;;12.18;;
60076;SDS011;45950;45.208;20.374;2023-06-26T01:03:54;19.35;;;11.88;;
60076;SDS011;45950;45.208;20.374;2023-06-26T01:06:22;14.68;;;10.55;;
60076;SDS011;45950;45.208;20.374;2023-06-26T01:08:50;13.18;;;11.25;;
60076;SDS011;45950;45.208;20.374;2023-06-26T01:11:17;16.83;;;11.98;;
60076;SDS011;45950;45.208;20.374;2023-06-26T01:13:44;12.93;;;11.32;;
60076;SDS011;45950;45.208;20.374;2023-06-26T01:16:12;14.18;;;10.52;;
60076;SDS011;45950;45.208;20.374;2023-06-26T01:18:41;13.05;;;9.90;;
60076;SDS011;45950;45.208;20.374;2023-06-26T01:21:08;14.52;;;10.55;;
60076;SDS011;45950;45.208;20.374;2023-06-26T01:23:37;15.27;;;12.35;;
60076;SDS011;45950;45.208;20.374;2023-06-26T01:26:12;14.07;;;11.77;;
60076;SDS011;45950;45.208;20.374;2023-06-26T01:28:41;14.98;;;11.73;;
60076;SDS011;45950;45.208;20.374;2023-06-26T01:31:08;15.38;;;11.30;;
60076;SDS011;45950;45.208;20.374;2023-06-26T01:33:34;12.27;;;9.55;;
60076;SDS011;45950;45.208;20.374;2023-06-26T01:36:02;14.55;;;11.48;;
60076;SDS011;45950;45.208;20.374;2023-06-26T01:38:29;13.65;;;11.32;;
60076;SDS011;45950;45.208;20.374;2023-06-26T01:40:55;14.35;;;10.95;;
60076;SDS011;45950;45.208;20.374;2023-06-26T01:43:24;12.48;;;10.00;;
60076;SDS011;45950;45.208;20.374;2023-06-26T01:45:51;13.43;;;11.77;;
60076;SDS011;45950;45.208;20.374;2023-06-26T01:48:22;16.42;;;12.27;;
60076;SDS011;45950;45.208;20.374;2023-06-26T01:50:49;12.57;;;9.77;;
60076;SDS011;45950;45.208;20.374;2023-06-26T01:53:18;14.68;;;12.15;;
60076;SDS011;45950;45.208;20.374;2023-06-26T01:55:46;14.30;;;12.40;;
60076;SDS011;45950;45.208;20.374;2023-06-26T01:58:13;13.65;;;10.25;;
60076;SDS011;45950;45.208;20.374;2023-06-26T02:00:43;13.73;;;12.02;;
60076;SDS011;45950;45.208;20.374;2023-06-26T02:03:10;18.58;;;13.23;;
60076;SDS011;45950;45.208;20.374;2023-06-26T02:05:36;15.02;;;12.55;;
60076;SDS011;45950;45.208;20.374;2023-06-26T02:08:16;14.73;;;13.15;;
60076;SDS011;45950;45.208;20.374;2023-06-26T02:10:43;15.48;;;13.55;;
60076;SDS011;45950;45.208;20.374;2023-06-26T02:13:09;16.10;;;12.68;;
60076;SDS011;45950;45.208;20.374;2023-06-26T02:15:36;14.98;;;12.75;;
60076;SDS011;45950;45.208;20.374;2023-06-26T02:18:04;16.83;;;13.48;;
60076;SDS011;45950;45.208;20.374;2023-06-26T02:20:30;13.73;;;12.32;;
60076;SDS011;45950;45.208;20.374;2023-06-26T02:22:58;17.98;;;14.63;;
60076;SDS011;45950;45.208;20.374;2023-06-26T02:25:25;17.52;;;13.57;;
60076;SDS011;45950;45.208;20.374;2023-06-26T02:27:51;17.63;;;14.48;;
60076;SDS011;45950;45.208;20.374;2023-06-26T02:30:18;18.27;;;13.98;;
60076;SDS011;45950;45.208;20.374;2023-06-26T02:32:45;18.17;;;14.70;;
60076;SDS011;45950;45.208;20.374;2023-06-26T02:35:13;16.88;;;15.00;;
60076;SDS011;45950;45.208;20.374;2023-06-26T02:37:39;18.83;;;15.68;;
60076;SDS011;45950;45.208;20.374;2023-06-26T02:40:06;19.77;;;15.48;;
60076;SDS011;45950;45.208;20.374;2023-06-26T02:42:34;17.13;;;14.88;;
60076;SDS011;45950;45.208;20.374;2023-06-26T02:45:01;17.48;;;14.52;;
60076;SDS011;45950;45.208;20.374;2023-06-26T02:47:27;18.88;;;15.85;;
60076;SDS011;45950;45.208;20.374;2023-06-26T02:49:54;20.80;;;15.80;;
60076;SDS011;45950;45.208;20.374;2023-06-26T02:52:22;24.63;;;16.58;;
60076;SDS011;45950;45.208;20.374;2023-06-26T02:54:48;18.40;;;15.73;;
60076;SDS011;45950;45.208;20.374;2023-06-26T02:57:15;18.30;;;14.98;;
60076;SDS011;45950;45.208;20.374;2023-06-26T02:59:42;18.83;;;15.25;;
60076;SDS011;45950;45.208;20.374;2023-06-26T03:02:08;19.52;;;15.70;;
60076;SDS011;45950;45.208;20.374;2023-06-26T03:04:39;22.27;;;16.98;;
60076;SDS011;45950;45.208;20.374;2023-06-26T03:07:08;18.42;;;15.55;;
60076;SDS011;45950;45.208;20.374;2023-06-26T03:09:36;18.60;;;15.05;;
60076;SDS011;45950;45.208;20.374;2023-06-26T03:24:53;17.77;;;13.50;;
60076;SDS011;45950;45.208;20.374;2023-06-26T03:27:20;17.38;;;13.57;;
60076;SDS011;45950;45.208;20.374;2023-06-26T03:29:47;17.95;;;13.20;;
60076;SDS011;45950;45.208;20.374;2023-06-26T03:32:13;14.88;;;13.25;;
60076;SDS011;45950;45.208;20.374;2023-06-26T03:34:40;15.52;;;13.50;;
60076;SDS011;45950;45.208;20.374;2023-06-26T03:37:07;18.02;;;13.40;;
60076;SDS011;45950;45.208;20.374;2023-06-26T03:39:33;17.48;;;13.30;;
60076;SDS011;45950;45.208;20.374;2023-06-26T03:42:01;13.48;;;10.98;;
60076;SDS011;45950;45.208;20.374;2023-06-26T03:44:28;18.75;;;13.10;;
60076;SDS011;45950;45.208;20.374;2023-06-26T03:46:54;18.80;;;13.90;;
60076;SDS011;45950;45.208;20.374;2023-06-26T03:49:21;18.13;;;13.73;;
60076;SDS011;45950;45.208;20.374;2023-06-26T03:51:48;18.70;;;15.23;;
60076;SDS011;45950;45.208;20.374;2023-06-26T03:54:14;17.30;;;14.93;;
60076;SDS011;45950;45.208;20.374;2023-06-26T03:56:41;16.80;;;14.57;;
60076;SDS011;45950;45.208;20.374;2023-06-26T03:59:09;16.90;;;15.15;;
60076;SDS011;45950;45.208;20.374;2023-06-26T04:01:36;20.40;;;15.18;;
60076;SDS011;45950;45.208;20.374;2023-06-26T04:04:03;18.85;;;13.65;;
60076;SDS011;45950;45.208;20.374;2023-06-26T04:06:29;17.25;;;14.52;;
60076;SDS011;45950;45.208;20.374;2023-06-26T04:08:56;17.92;;;13.65;;
60076;SDS011;45950;45.208;20.374;2023-06-26T04:11:23;20.88;;;14.32;;
60076;SDS011;45950;45.208;20.374;2023-06-26T04:13:51;15.40;;;13.65;;
60076;SDS011;45950;45.208;20.374;2023-06-26T04:16:19;18.60;;;14.45;;
60076;SDS011;45950;45.208;20.374;2023-06-26T04:18:46;16.77;;;14.80;;
60076;SDS011;45950;45.208;20.374;2023-06-26T04:21:12;19.80;;;14.63;;
60076;SDS011;45950;45.208;20.374;2023-06-26T04:23:39;15.88;;;14.18;;
60076;SDS011;45950;45.208;20.374;2023-06-26T04:26:06;16.23;;;14.25;;
60076;SDS011;45950;45.208;20.374;2023-06-26T04:28:33;15.43;;;13.23;;
60076;SDS011;45950;45.208;20.374;2023-06-26T04:31:00;18.52;;;14.50;;
60076;SDS011;45950;45.208;20.374;2023-06-26T04:33:29;16.85;;;14.77;;
60076;SDS011;45950;45.208;20.374;2023-06-26T04:49:42;13.13;;;11.25;;
60076;SDS011;45950;45.208;20.374;2023-06-26T04:52:11;12.18;;;10.45;;
60076;SDS011;45950;45.208;20.374;2023-06-26T04:54:38;18.83;;;13.52;;
60076;SDS011;45950;45.208;20.374;2023-06-26T04:57:05;13.48;;;11.43;;
60076;SDS011;45950;45.208;20.374;2023-06-26T04:59:31;17.98;;;13.95;;
60076;SDS011;45950;45.208;20.374;2023-06-26T05:01:58;17.23;;;13.90;;
60076;SDS011;45950;45.208;20.374;2023-06-26T05:04:25;15.32;;;12.50;;
60076;SDS011;45950;45.208;20.374;2023-06-26T05:06:53;13.65;;;11.35;;
60076;SDS011;45950;45.208;20.374;2023-06-26T05:09:19;17.42;;;14.10;;
60076;SDS011;45950;45.208;20.374;2023-06-26T05:11:46;14.77;;;11.70;;
60076;SDS011;45950;45.208;20.374;2023-06-26T05:14:12;14.43;;;12.25;;
60076;SDS011;45950;45.208;20.374;2023-06-26T05:16:39;15.05;;;12.07;;
60076;SDS011;45950;45.208;20.374;2023-06-26T05:19:05;16.58;;;10.98;;
60076;SDS011;45950;45.208;20.374;2023-06-26T05:21:32;11.18;;;9.43;;
60076;SDS011;45950;45.208;20.374;2023-06-26T05:24:01;11.18;;;9.73;;
60076;SDS011;45950;45.208;20.374;2023-06-26T05:26:29;14.10;;;12.60;;
60076;SDS011;45950;45.208;20.374;2023-06-26T05:28:56;15.07;;;13.30;;
60076;SDS011;45950;45.208;20.374;2023-06-26T05:31:22;11.38;;;9.45;;
60076;SDS011;45950;45.208;20.374;2023-06-26T05:33:49;12.77;;;10.45;;
60076;SDS011;45950;45.208;20.374;2023-06-26T05:36:17;12.25;;;10.25;;
60076;SDS011;45950;45.208;20.374;2023-06-26T05:38:45;10.88;;;9.13;;
60076;SDS011;45950;45.208;20.374;2023-06-26T05:41:13;10.82;;;9.43;;
60076;SDS011;45950;45.208;20.374;2023-06-26T05:43:40;10.13;;;8.43;;
60076;SDS011;45950;45.208;20.374;2023-06-26T05:46:06;10.30;;;8.50;;
60076;SDS011;45950;45.208;20.374;2023-06-26T05:48:33;11.32;;;9.70;;
60076;SDS011;45950;45.208;20.374;2023-06-26T05:57:02;8.63;;;7.25;;
60076;SDS011;45950;45.208;20.374;2023-06-26T05:59:30;13.73;;;9.27;;
60076;SDS011;45950;45.208;20.374;2023-06-26T06:01:57;9.93;;;8.93;;
60076;SDS011;45950;45.208;20.374;2023-06-26T06:04:24;9.07;;;6.60;;
60076;SDS011;45950;45.208;20.374;2023-06-26T06:06:51;8.68;;;7.70;;
60076;SDS011;45950;45.208;20.374;2023-06-26T06:09:18;10.25;;;8.20;;
60076;SDS011;45950;45.208;20.374;2023-06-26T06:11:44;8.60;;;7.13;;
60076;SDS011;45950;45.208;20.374;2023-06-26T06:14:12;8.25;;;6.82;;
60076;SDS011;45950;45.208;20.374;2023-06-26T06:16:39;8.38;;;7.30;;
60076;SDS011;45950;45.208;20.374;2023-06-26T06:19:05;12.10;;;8.55;;
60076;SDS011;45950;45.208;20.374;2023-06-26T06:21:33;7.30;;;6.45;;
60076;SDS011;45950;45.208;20.374;2023-06-26T06:23:59;7.90;;;6.93;;
60076;SDS011;45950;45.208;20.374;2023-06-26T06:26:26;8.35;;;7.45;;
60076;SDS011;45950;45.208;20.374;2023-06-26T06:28:53;8.95;;;7.10;;
60076;SDS011;45950;45.208;20.374;2023-06-26T06:31:21;9.57;;;7.93;;
60076;SDS011;45950;45.208;20.374;2023-06-26T06:33:47;9.30;;;7.00;;
60076;SDS011;45950;45.208;20.374;2023-06-26T06:36:14;7.88;;;6.53;;
60076;SDS011;45950;45.208;20.374;2023-06-26T06:38:42;9.20;;;7.57;;
60076;SDS011;45950;45.208;20.374;2023-06-26T06:41:12;6.70;;;5.00;;
60076;SDS011;45950;45.208;20.374;2023-06-26T06:43:38;10.23;;;7.20;;
60076;SDS011;45950;45.208;20.374;2023-06-26T06:46:05;6.60;;;5.10;;
60076;SDS011;45950;45.208;20.374;2023-06-26T06:48:33;9.30;;;5.97;;
60076;SDS011;45950;45.208;20.374;2023-06-26T06:51:02;6.97;;;5.78;;
60076;SDS011;45950;45.208;20.374;2023-06-26T06:53:29;6.18;;;4.63;;
60076;SDS011;45950;45.208;20.374;2023-06-26T06:55:55;7.97;;;6.22;;
60076;SDS011;45950;45.208;20.374;2023-06-26T06:58:24;8.88;;;5.50;;
60076;SDS011;45950;45.208;20.374;2023-06-26T07:00:50;7.10;;;5.60;;
60076;SDS011;45950;45.208;20.374;2023-06-26T07:03:17;6.65;;;5.22;;
60076;SDS011;45950;45.208;20.374;2023-06-26T07:05:47;6.90;;;5.53;;
60076;SDS011;45950;45.208;20.374;2023-06-26T07:08:14;6.63;;;4.68;;
60076;SDS011;45950;45.208;20.374;2023-06-26T07:10:41;7.32;;;4.70;;
60076;SDS011;45950;45.208;20.374;2023-06-26T07:13:07;5.65;;;4.30;;
60076;SDS011;45950;45.208;20.374;2023-06-26T07:15:34;5.78;;;4.60;;
60076;SDS011;45950;45.208;20.374;2023-06-26T07:18:00;6.32;;;4.57;;
60076;SDS011;45950;45.208;20.374;2023-06-26T07:20:27;5.30;;;4.70;;
60076;SDS011;45950;45.208;20.374;2023-06-26T07:22:55;6.22;;;5.30;;
60076;SDS011;45950;45.208;20.374;2023-06-26T07:25:22;5.78;;;4.40;;
60076;SDS011;45950;45.208;20.374;2023-06-26T07:27:48;6.10;;;3.92;;
60076;SDS011;45950;45.208;20.374;2023-06-26T07:30:15;9.52;;;5.18;;
60076;SDS011;45950;45.208;20.374;2023-06-26T07:32:41;6.45;;;3.95;;
60076;SDS011;45950;45.208;20.374;2023-06-26T07:35:08;5.88;;;4.32;;
60076;SDS011;45950;45.208;20.374;2023-06-26T07:37:40;5.32;;;4.22;;
60076;SDS011;45950;45.208;20.374;2023-06-26T07:40:09;7.45;;;4.30;;
60076;SDS011;45950;45.208;20.374;2023-06-26T07:42:36;5.45;;;3.90;;
60076;SDS011;45950;45.208;20.374;2023-06-26T07:45:03;6.18;;;3.92;;
60076;SDS011;45950;45.208;20.374;2023-06-26T07:47:35;4.72;;;3.63;;
60076;SDS011;45950;45.208;20.374;2023-06-26T07:50:01;4.85;;;3.83;;
60076;SDS011;45950;45.208;20.374;2023-06-26T07:52:46;6.35;;;4.38;;
60076;SDS011;45950;45.208;20.374;2023-06-26T07:55:14;7.57;;;4.47;;
60076;SDS011;45950;45.208;20.374;2023-06-26T07:57:41;5.65;;;3.80;;
60076;SDS011;45950;45.208;20.374;2023-06-26T08:03:10;6.95;;;4.03;;
60076;SDS011;45950;45.208;20.374;2023-06-26T08:05:37;4.70;;;4.07;;
60076;SDS011;45950;45.208;20.374;2023-06-26T08:08:03;5.70;;;3.85;;
60076;SDS011;45950;45.208;20.374;2023-06-26T08:10:33;3.63;;;2.83;;
60076;SDS011;45950;45.208;20.374;2023-06-26T08:12:59;4.18;;;3.10;;
60076;SDS011;45950;45.208;20.374;2023-06-26T08:15:26;6.32;;;3.85;;
60076;SDS011;45950;45.208;20.374;2023-06-26T08:17:53;5.07;;;3.90;;
60076;SDS011;45950;45.208;20.374;2023-06-26T08:20:19;4.53;;;3.70;;
60076;SDS011;45950;45.208;20.374;2023-06-26T08:22:47;5.40;;;3.30;;
60076;SDS011;45950;45.208;20.374;2023-06-26T08:25:15;4.82;;;3.45;;
60076;SDS011;45950;45.208;20.374;2023-06-26T08:30:46;5.40;;;3.45;;
60076;SDS011;45950;45.208;20.374;2023-06-26T08:33:13;4.03;;;3.40;;
60076;SDS011;45950;45.208;20.374;2023-06-26T08:35:39;6.30;;;4.15;;
60076;SDS011;45950;45.208;20.374;2023-06-26T08:41:09;4.68;;;3.65;;
60076;SDS011;45950;45.208;20.374;2023-06-26T08:43:36;4.43;;;3.45;;
60076;SDS011;45950;45.208;20.374;2023-06-26T08:46:04;4.10;;;3.60;;
60076;SDS011;45950;45.208;20.374;2023-06-26T08:48:31;4.85;;;4.03;;
60076;SDS011;45950;45.208;20.374;2023-06-26T08:50:58;6.07;;;4.10;;
60076;SDS011;45950;45.208;20.374;2023-06-26T08:53:29;5.82;;;3.95;;
60076;SDS011;45950;45.208;20.374;2023-06-26T08:55:56;7.13;;;3.70;;
60076;SDS011;45950;45.208;20.374;2023-06-26T08:58:23;5.10;;;4.07;;
60076;SDS011;45950;45.208;20.374;2023-06-26T09:00:50;7.18;;;4.20;;
60076;SDS011;45950;45.208;20.374;2023-06-26T09:03:18;8.85;;;4.38;;
60076;SDS011;45950;45.208;20.374;2023-06-26T09:05:45;4.90;;;4.07;;
60076;SDS011;45950;45.208;20.374;2023-06-26T09:08:12;6.22;;;3.95;;
60076;SDS011;45950;45.208;20.374;2023-06-26T09:10:38;10.73;;;5.15;;
60076;SDS011;45950;45.208;20.374;2023-06-26T09:13:05;5.90;;;4.43;;
60076;SDS011;45950;45.208;20.374;2023-06-26T09:15:36;6.25;;;3.70;;
60076;SDS011;45950;45.208;20.374;2023-06-26T09:18:04;5.57;;;4.38;;
60076;SDS011;45950;45.208;20.374;2023-06-26T09:20:32;6.35;;;4.35;;
60076;SDS011;45950;45.208;20.374;2023-06-26T09:22:59;5.40;;;4.15;;
60076;SDS011;45950;45.208;20.374;2023-06-26T09:25:26;5.50;;;3.67;;
60076;SDS011;45950;45.208;20.374;2023-06-26T09:30:56;5.75;;;4.30;;
60076;SDS011;45950;45.208;20.374;2023-06-26T09:33:26;5.75;;;3.83;;
60076;SDS011;45950;45.208;20.374;2023-06-26T09:38:57;5.00;;;3.95;;
60076;SDS011;45950;45.208;20.374;2023-06-26T09:41:23;5.88;;;4.45;;
60076;SDS011;45950;45.208;20.374;2023-06-26T09:43:50;4.57;;;3.80;;
60076;SDS011;45950;45.208;20.374;2023-06-26T09:46:17;6.32;;;4.15;;
60076;SDS011;45950;45.208;20.374;2023-06-26T09:48:50;5.60;;;4.10;;
60076;SDS011;45950;45.208;20.374;2023-06-26T09:54:27;4.13;;;3.03;;
60076;SDS011;45950;45.208;20.374;2023-06-26T09:56:56;4.40;;;3.65;;
60076;SDS011;45950;45.208;20.374;2023-06-26T09:59:32;4.97;;;3.70;;
60076;SDS011;45950;45.208;20.374;2023-06-26T10:01:59;4.75;;;4.15;;
60076;SDS011;45950;45.208;20.374;2023-06-26T10:04:26;4.82;;;3.60;;
60076;SDS011;45950;45.208;20.374;2023-06-26T10:06:54;4.57;;;3.92;;
60076;SDS011;45950;45.208;20.374;2023-06-26T10:09:22;5.18;;;3.67;;
60076;SDS011;45950;45.208;20.374;2023-06-26T10:11:51;4.70;;;3.85;;
60076;SDS011;45950;45.208;20.374;2023-06-26T10:14:19;6.13;;;4.03;;
60076;SDS011;45950;45.208;20.374;2023-06-26T10:16:48;4.38;;;3.45;;
60076;SDS011;45950;45.208;20.374;2023-06-26T10:19:18;5.78;;;3.63;;
60076;SDS011;45950;45.208;20.374;2023-06-26T10:21:49;6.50;;;3.97;;
60076;SDS011;45950;45.208;20.374;2023-06-26T10:24:16;6.70;;;4.65;;
60076;SDS011;45950;45.208;20.374;2023-06-26T10:26:44;5.18;;;3.65;;
60076;SDS011;45950;45.208;20.374;2023-06-26T10:29:13;5.15;;;3.95;;
60076;SDS011;45950;45.208;20.374;2023-06-26T10:31:42;5.40;;;3.75;;
60076;SDS011;45950;45.208;20.374;2023-06-26T10:34:10;4.32;;;3.47;;
60076;SDS011;45950;45.208;20.374;2023-06-26T10:36:37;4.90;;;3.45;;
60076;SDS011;45950;45.208;20.374;2023-06-26T10:39:04;5.72;;;4.05;;
60076;SDS011;45950;45.208;20.374;2023-06-26T10:44:41;9.63;;;5.72;;
60076;SDS011;45950;45.208;20.374;2023-06-26T10:47:08;6.40;;;3.83;;
60076;SDS011;45950;45.208;20.374;2023-06-26T10:49:35;4.38;;;3.65;;
60076;SDS011;45950;45.208;20.374;2023-06-26T10:52:02;5.10;;;4.03;;
60076;SDS011;45950;45.208;20.374;2023-06-26T10:54:29;4.45;;;3.75;;
60076;SDS011;45950;45.208;20.374;2023-06-26T10:56:56;8.07;;;4.95;;
60076;SDS011;45950;45.208;20.374;2023-06-26T10:59:24;5.00;;;3.90;;
60076;SDS011;45950;45.208;20.374;2023-06-26T11:01:55;6.72;;;4.10;;
60076;SDS011;45950;45.208;20.374;2023-06-26T11:04:35;4.45;;;3.35;;
60076;SDS011;45950;45.208;20.374;2023-06-26T11:10:07;4.40;;;3.63;;
60076;SDS011;45950;45.208;20.374;2023-06-26T11:12:35;4.80;;;4.22;;
60076;SDS011;45950;45.208;20.374;2023-06-26T11:15:02;4.97;;;3.55;;
60076;SDS011;45950;45.208;20.374;2023-06-26T11:17:30;4.28;;;3.72;;
60076;SDS011;45950;45.208;20.374;2023-06-26T11:23:00;4.43;;;3.80;;
60076;SDS011;45950;45.208;20.374;2023-06-26T11:25:27;4.40;;;3.65;;
60076;SDS011;45950;45.208;20.374;2023-06-26T11:27:53;4.30;;;3.78;;
60076;SDS011;45950;45.208;20.374;2023-06-26T11:30:24;5.00;;;4.18;;
60076;SDS011;45950;45.208;20.374;2023-06-26T11:32:52;4.78;;;3.60;;
60076;SDS011;45950;45.208;20.374;2023-06-26T11:35:22;5.30;;;3.88;;
60076;SDS011;45950;45.208;20.374;2023-06-26T11:37:54;4.93;;;3.97;;
60076;SDS011;45950;45.208;20.374;2023-06-26T11:40:22;4.65;;;3.97;;
60076;SDS011;45950;45.208;20.374;2023-06-26T11:42:52;5.05;;;3.80;;
60076;SDS011;45950;45.208;20.374;2023-06-26T11:45:19;4.35;;;3.45;;
60076;SDS011;45950;45.208;20.374;2023-06-26T11:47:46;6.72;;;4.10;;
60076;SDS011;45950;45.208;20.374;2023-06-26T11:50:15;4.07;;;3.55;;
60076;SDS011;45950;45.208;20.374;2023-06-26T11:52:43;5.45;;;3.92;;
60076;SDS011;45950;45.208;20.374;2023-06-26T11:55:10;5.38;;;4.20;;
60076;SDS011;45950;45.208;20.374;2023-06-26T11:57:36;5.55;;;4.68;;
60076;SDS011;45950;45.208;20.374;2023-06-26T12:00:12;7.55;;;4.47;;
60076;SDS011;45950;45.208;20.374;2023-06-26T12:02:39;6.82;;;4.47;;
60076;SDS011;45950;45.208;20.374;2023-06-26T12:05:06;6.40;;;4.40;;
60076;SDS011;45950;45.208;20.374;2023-06-26T12:07:34;6.05;;;3.75;;
60076;SDS011;45950;45.208;20.374;2023-06-26T12:10:02;5.47;;;4.00;;
60076;SDS011;45950;45.208;20.374;2023-06-26T12:12:33;5.82;;;3.85;;
60076;SDS011;45950;45.208;20.374;2023-06-26T12:14:59;5.53;;;4.38;;
60076;SDS011;45950;45.208;20.374;2023-06-26T12:17:27;5.00;;;4.38;;
60076;SDS011;45950;45.208;20.374;2023-06-26T12:20:00;7.78;;;4.28;;
60076;SDS011;45950;45.208;20.374;2023-06-26T12:22:34;5.18;;;4.22;;
60076;SDS011;45950;45.208;20.374;2023-06-26T12:25:01;5.03;;;4.22;;
60076;SDS011;45950;45.208;20.374;2023-06-26T12:27:28;4.97;;;4.40;;
60076;SDS011;45950;45.208;20.374;2023-06-26T12:29:58;5.55;;;4.80;;
60076;SDS011;45950;45.208;20.374;2023-06-26T12:32:25;6.20;;;4.55;;
60076;SDS011;45950;45.208;20.374;2023-06-26T12:34:51;6.25;;;4.53;;
60076;SDS011;45950;45.208;20.374;2023-06-26T12:37:18;5.20;;;4.22;;
60076;SDS011;45950;45.208;20.374;2023-06-26T12:39:52;4.13;;;3.58;;
60076;SDS011;45950;45.208;20.374;2023-06-26T12:44:45;6.45;;;4.90;;
60076;SDS011;45950;45.208;20.374;2023-06-26T12:47:13;4.72;;;3.65;;
60076;SDS011;45950;45.208;20.374;2023-06-26T12:49:41;5.82;;;4.25;;
60076;SDS011;45950;45.208;20.374;2023-06-26T12:52:08;4.75;;;3.88;;
60076;SDS011;45950;45.208;20.374;2023-06-26T12:54:35;6.43;;;3.83;;
60076;SDS011;45950;45.208;20.374;2023-06-26T12:57:04;5.43;;;4.68;;
60076;SDS011;45950;45.208;20.374;2023-06-26T12:59:31;5.50;;;3.92;;
60076;SDS011;45950;45.208;20.374;2023-06-26T13:01:58;6.57;;;4.82;;
60076;SDS011;45950;45.208;20.374;2023-06-26T13:04:24;5.38;;;4.25;;
60076;SDS011;45950;45.208;20.374;2023-06-26T13:06:51;4.43;;;3.38;;
60076;SDS011;45950;45.208;20.374;2023-06-26T13:09:19;4.80;;;3.80;;
60076;SDS011;45950;45.208;20.374;2023-06-26T13:11:46;4.75;;;3.90;;
60076;SDS011;45950;45.208;20.374;2023-06-26T13:14:14;16.60;;;5.15;;
60076;SDS011;45950;45.208;20.374;2023-06-26T13:16:41;7.32;;;4.57;;
60076;SDS011;45950;45.208;20.374;2023-06-26T13:19:07;6.20;;;4.50;;
60076;SDS011;45950;45.208;20.374;2023-06-26T13:21:34;7.00;;;4.40;;
60076;SDS011;45950;45.208;20.374;2023-06-26T13:24:01;5.68;;;5.07;;
60076;SDS011;45950;45.208;20.374;2023-06-26T13:26:29;6.35;;;4.50;;
60076;SDS011;45950;45.208;20.374;2023-06-26T13:29:05;5.95;;;4.40;;
60076;SDS011;45950;45.208;20.374;2023-06-26T13:31:33;5.97;;;4.63;;
60076;SDS011;45950;45.208;20.374;2023-06-26T13:33:59;6.22;;;4.65;;
60076;SDS011;45950;45.208;20.374;2023-06-26T13:36:34;7.00;;;4.05;;
60076;SDS011;45950;45.208;20.374;2023-06-26T13:39:00;6.03;;;5.43;;
60076;SDS011;45950;45.208;20.374;2023-06-26T13:41:27;6.25;;;4.60;;
60076;SDS011;45950;45.208;20.374;2023-06-26T13:43:55;5.68;;;4.95;;
60076;SDS011;45950;45.208;20.374;2023-06-26T13:46:22;5.93;;;4.82;;
60076;SDS011;45950;45.208;20.374;2023-06-26T13:48:49;4.18;;;3.70;;
60076;SDS011;45950;45.208;20.374;2023-06-26T13:51:16;5.20;;;4.50;;
60076;SDS011;45950;45.208;20.374;2023-06-26T13:53:43;4.55;;;4.07;;
60076;SDS011;45950;45.208;20.374;2023-06-26T13:56:09;4.93;;;4.20;;
60076;SDS011;45950;45.208;20.374;2023-06-26T13:58:36;10.63;;;4.25;;
60076;SDS011;45950;45.208;20.374;2023-06-26T14:01:04;6.50;;;4.43;;
60076;SDS011;45950;45.208;20.374;2023-06-26T14:03:31;6.57;;;5.05;;
60076;SDS011;45950;45.208;20.374;2023-06-26T14:05:59;5.78;;;5.18;;
60076;SDS011;45950;45.208;20.374;2023-06-26T14:08:26;6.68;;;4.75;;
60076;SDS011;45950;45.208;20.374;2023-06-26T14:10:52;7.07;;;4.47;;
60076;SDS011;45950;45.208;20.374;2023-06-26T14:13:20;5.22;;;4.55;;
60076;SDS011;45950;45.208;20.374;2023-06-26T14:15:46;6.70;;;4.10;;
60076;SDS011;45950;45.208;20.374;2023-06-26T14:18:13;6.72;;;4.57;;
60076;SDS011;45950;45.208;20.374;2023-06-26T14:20:40;5.47;;;4.97;;
60076;SDS011;45950;45.208;20.374;2023-06-26T14:23:08;7.03;;;4.97;;
60076;SDS011;45950;45.208;20.374;2023-06-26T14:25:34;5.80;;;5.20;;
60076;SDS011;45950;45.208;20.374;2023-06-26T14:28:01;8.50;;;5.43;;
60076;SDS011;45950;45.208;20.374;2023-06-26T14:30:28;5.75;;;5.10;;
60076;SDS011;45950;45.208;20.374;2023-06-26T14:32:56;6.03;;;4.40;;
60076;SDS011;45950;45.208;20.374;2023-06-26T14:35:22;7.38;;;5.10;;
60076;SDS011;45950;45.208;20.374;2023-06-26T14:37:49;5.55;;;4.93;;
60076;SDS011;45950;45.208;20.374;2023-06-26T14:40:17;6.07;;;4.30;;
60076;SDS011;45950;45.208;20.374;2023-06-26T14:42:44;7.13;;;4.70;;
60076;SDS011;45950;45.208;20.374;2023-06-26T14:45:11;5.55;;;4.70;;
60076;SDS011;45950;45.208;20.374;2023-06-26T14:47:37;7.70;;;5.30;;
60076;SDS011;45950;45.208;20.374;2023-06-26T14:50:04;6.25;;;5.25;;
60076;SDS011;45950;45.208;20.374;2023-06-26T14:58:38;7.13;;;5.68;;
60076;SDS011;45950;45.208;20.374;2023-06-26T15:01:04;7.13;;;5.05;;
60076;SDS011;45950;45.208;20.374;2023-06-26T15:03:31;7.63;;;4.95;;
60076;SDS011;45950;45.208;20.374;2023-06-26T15:05:58;6.07;;;5.15;;
60076;SDS011;45950;45.208;20.374;2023-06-26T15:08:24;5.82;;;3.80;;
60076;SDS011;45950;45.208;20.374;2023-06-26T15:10:51;4.97;;;4.05;;
60076;SDS011;45950;45.208;20.374;2023-06-26T15:13:18;6.63;;;4.40;;
60076;SDS011;45950;45.208;20.374;2023-06-26T15:15:46;4.35;;;3.80;;
60076;SDS011;45950;45.208;20.374;2023-06-26T15:18:12;8.00;;;4.90;;
60076;SDS011;45950;45.208;20.374;2023-06-26T15:23:41;7.43;;;5.45;;
60076;SDS011;45950;45.208;20.374;2023-06-26T15:26:08;6.07;;;4.20;;
60076;SDS011;45950;45.208;20.374;2023-06-26T15:28:35;6.60;;;4.63;;
60076;SDS011;45950;45.208;20.374;2023-06-26T15:31:03;5.43;;;4.40;;
60076;SDS011;45950;45.208;20.374;2023-06-26T15:33:29;7.05;;;4.78;;
60076;SDS011;45950;45.208;20.374;2023-06-26T15:35:59;7.65;;;5.45;;
60076;SDS011;45950;45.208;20.374;2023-06-26T15:38:29;13.73;;;4.88;;